Booker, TX (79005)

2:11 PM CDT on September 02, 2014 (GMT -0500)
Zender Laundromat | Change Station
CLOSE
Current Station
Personal Weather Station
Location: Booker, TX
Elevation: 2844 ft
Nearby Weather Stations

Elev 2844 ft 36.45 °N, 100.54 °W | Updated 12 seconds ago

Overcast
Overcast
84.9 °F
Feels Like 92 °F
N
6.9
Wind Variable Wind from NE
Gusts 10.7 mph

Today
High -- | Low -- °F
--% Chance of Precip.
Yesterday
High -- | Low -- °F
Precip. -- in
7:14 AM 8:08 PM
First Quarter, 54% visible
Pressure 30.02 in
Visibility 7.0 miles
Clouds Overcast 3300 ft
Heat Index 92 °F
Dew Point 73 °F
Humidity 68%
Rainfall 0.00 in
Snow Depth Not available.
UV 3 out of 12
Pollen 10.00 out of 12
Air Quality Not available.
Flu Activity Not available.
METAR KPYX 021855Z AUTO 09007KT 7SM OVC033 28/19 A3002 RMK AO2 T02770186

More Conditions Fewer Conditions

Pressure 30.02 in
Visibility 7.0 miles
Clouds Overcast 3300 ft
Heat Index 92 °F
Dew Point 73 °F
Humidity 68%
Rainfall 0.00 in
Snow Depth Not available.
UV 3 out of 12
Pollen 10.00 out of 12
Air Quality Not available.
Flu Activity Not available.
METAR KPYX 021855Z AUTO 09007KT 7SM OVC033 28/19 A3002 RMK AO2 T02770186

More Conditions Fewer Conditions

10-Day Weather Forecast

Almanac

Astronomy

Sep. 02, 2014 Rise Set
Actual Time 7:14 AM CDT 8:08 PM CDT
Civil Twilight 6:47 AM CDT 8:34 PM CDT
Nautical Twilight 6:16 AM CDT 9:05 PM CDT
Astronomical Twilight 5:44 AM CDT 9:38 PM CDT
Moon 2:48 PM CDT 12:24 AM CDT
Length of Visible Light 13h 46m
Length of Day
12h 54m
Tomorrow will be 2m 13s shorter.
First Quarter, 54% of the Moon is Illuminated
Today
First Quarter
Sep 8
Full
Sep 15
Last Quarter
Sep 24
New
Oct 1
First Quarter

Today's Extremes

State Highs State Lows

Community

WunderPhotos

Upload Photos

1,749,746 photos uploaded!

WunderBlogs® & News

By Dr. Jeff Masters
Director of Meteorology, Weather Underground
By Kari Strenfel
Meteorologist, Weather Underground
By Christopher C. Burt
Weather Historian, Weather Underground
September 2, 2014
September 2, 2014
September 2, 2014

Nearby

Snow Depth

Station Depth Elevation
No new snow has been reported.

Earthquake Activity

City Distance Mag. Time & Date
No recent earthquake activity has been reported nearby.
Minimum magnitude displayed is 2.5.

Coastal Water Temperatures

Place Temperature
No Stations Reporting

Nearby Weather Stations